Time;durP1;ratioP1;P1;durP2;ratioP2;P2;SDS_P1;SDS_P2;PMS_P1;PMS_P2;Temp;Humidity;BMP_temperature;BMP_pressure;BME280_temperature;BME280_humidity;BME280_pressure;Samples;Min_cycle;Max_cycle;Signal;HPM_P1;HPM_P2
2023/03/01 00:00:15;;;;;;;34.85;21.33;;;;;;;-2.59;100.00;100815.63;1693771;82;21232;-87
2023/03/01 00:03:20;;;;;;;30.40;20.32;;;;;;;-2.60;100.00;100807.66;1693188;80;21898;-89
2023/03/01 00:06:30;;;;;;;35.73;20.55;;;;;;;-2.61;100.00;100801.44;1693948;83;21927;-89
2023/03/01 00:09:37;;;;;;;32.63;20.95;;;;;;;-2.62;100.00;100802.39;1692186;84;21191;-90
2023/03/01 00:12:44;;;;;;;31.65;20.75;;;;;;;-2.63;100.00;100802.48;1684002;85;21217;-89
2023/03/01 00:15:50;;;;;;;38.73;22.40;;;;;;;-2.62;100.00;100809.08;1711751;84;21759;-88
2023/03/01 00:18:57;;;;;;;35.20;22.77;;;;;;;-2.61;100.00;100805.93;1682682;83;21260;-86
2023/03/01 00:22:04;;;;;;;31.77;20.97;;;;;;;-2.61;100.00;100805.93;1711635;84;21208;-90
2023/03/01 00:25:09;;;;;;;33.73;21.00;;;;;;;-2.58;100.00;100803.09;1683982;85;21233;-87
2023/03/01 00:28:17;;;;;;;32.03;19.87;;;;;;;-2.55;100.00;100793.54;1711291;84;21311;-90
2023/03/01 00:31:26;;;;;;;32.05;18.32;;;;;;;-2.53;100.00;100780.95;1683977;85;21189;-89
2023/03/01 00:34:32;;;;;;;29.95;20.48;;;;;;;-2.58;100.00;100768.28;1710600;84;21842;-90
2023/03/01 00:37:32;;;;;;;38.63;22.05;;;;;;;-2.61;100.00;100762.59;1684294;85;21197;-90
2023/03/01 00:40:39;;;;;;;37.50;20.62;;;;;;;-2.64;100.00;100759.20;1711459;81;21169;-88
2023/03/01 00:43:46;;;;;;;37.60;21.73;;;;;;;-2.66;100.00;100758.44;1682612;85;21190;-89
2023/03/01 00:46:54;;;;;;;33.28;22.48;;;;;;;-2.67;100.00;100754.03;1726723;81;21224;-88
2023/03/01 00:50:00;;;;;;;30.97;20.12;;;;;;;-2.66;100.00;100753.95;1717023;82;21220;-86
2023/03/01 00:53:05;;;;;;;38.10;24.30;;;;;;;-2.69;100.00;100746.06;1718555;82;21192;-89
2023/03/01 00:56:13;;;;;;;38.38;23.95;;;;;;;-2.70;100.00;100747.49;1748857;82;21189;-88
2023/03/01 00:59:20;;;;;;;34.20;22.17;;;;;;;-2.76;100.00;100748.69;1728968;83;21283;-89
2023/03/01 01:02:27;;;;;;;29.15;20.88;;;;;;;-2.78;100.00;100751.04;1749129;82;21236;-89
2023/03/01 01:05:33;;;;;;;31.02;20.72;;;;;;;-2.75;100.00;100743.72;1729699;82;21261;-87
2023/03/01 01:08:40;;;;;;;28.25;18.67;;;;;;;-2.71;100.00;100747.11;1728077;83;21723;-89
2023/03/01 01:11:46;;;;;;;26.77;18.27;;;;;;;-2.69;100.00;100743.86;1747814;82;21184;-88
2023/03/01 01:14:51;;;;;;;28.10;18.62;;;;;;;-2.71;100.00;100739.08;1746808;82;21224;-86
2023/03/01 01:17:56;;;;;;;31.62;18.77;;;;;;;-2.70;100.00;100733.62;1748149;82;21188;-88
2023/03/01 01:21:01;;;;;;;29.48;18.23;;;;;;;-2.71;100.00;100729.22;1755648;80;21177;-86
2023/03/01 01:24:09;;;;;;;32.13;18.32;;;;;;;-2.72;100.00;100730.18;1758472;81;21212;-87
2023/03/01 01:27:15;;;;;;;29.57;18.77;;;;;;;-2.75;100.00;100732.15;1778559;80;21196;-88
2023/03/01 01:30:21;;;;;;;31.68;18.45;;;;;;;-2.73;100.00;100731.58;1777911;80;21213;-89
2023/03/01 01:33:21;;;;;;;25.95;17.00;;;;;;;-2.70;100.00;100728.75;1778519;80;21184;-88
2023/03/01 01:36:28;;;;;;;29.40;17.70;;;;;;;-2.73;100.00;100716.41;1778407;80;21173;-87
2023/03/01 01:39:27;;;;;;;33.78;21.20;;;;;;;-2.76;100.00;100741.13;1778910;80;21228;-89
2023/03/01 01:42:31;;;;;;;33.85;21.15;;;;;;;-2.83;100.00;100730.72;1778632;80;21193;-89
2023/03/01 01:45:40;;;;;;;39.65;22.27;;;;;;;-2.82;100.00;100731.62;1777163;80;21221;-88
2023/03/01 01:48:49;;;;;;;31.85;20.60;;;;;;;-2.80;100.00;100737.74;1769498;80;21760;-89
2023/03/01 01:51:56;;;;;;;29.87;19.23;;;;;;;-2.80;100.00;100736.88;1769593;81;21205;-90
2023/03/01 01:55:06;;;;;;;28.25;17.45;;;;;;;-2.80;100.00;100738.22;1769477;81;21192;-88
2023/03/01 01:58:13;;;;;;;31.97;17.60;;;;;;;-2.78;100.00;100733.16;1768632;81;21173;-90
2023/03/01 02:01:19;;;;;;;26.48;18.17;;;;;;;-2.81;100.00;100742.72;1768326;81;21236;-89
2023/03/01 02:04:26;;;;;;;32.10;22.17;;;;;;;-2.83;100.00;100744.11;1769224;81;21265;-88
2023/03/01 02:07:31;;;;;;;33.30;22.95;;;;;;;-2.88;100.00;100743.48;1769644;81;21189;-87
2023/03/01 02:10:39;;;;;;;36.77;24.20;;;;;;;-2.93;100.00;100746.88;1770271;81;21248;-89
2023/03/01 02:13:45;;;;;;;36.00;23.20;;;;;;;-2.95;100.00;100744.77;1774458;81;21231;-90
2023/03/01 02:16:51;;;;;;;28.85;18.95;;;;;;;-2.96;99.99;100743.05;1773621;81;21212;-89
2023/03/01 02:20:29;;;;;;;29.60;20.95;;;;;;;-2.98;100.00;100727.52;1769715;81;21503;-88
2023/03/01 02:23:27;;;;;;;34.58;21.42;;;;;;;-3.02;99.86;100727.28;1774245;81;21165;-86
2023/03/01 02:26:50;;;;;;;31.87;20.62;;;;;;;-3.04;100.00;100722.98;1772530;81;21815;-86
2023/03/01 02:29:55;;;;;;;34.50;20.77;;;;;;;-3.04;100.00;100718.48;1774156;81;21194;-86
2023/03/01 02:33:04;;;;;;;34.58;19.37;;;;;;;-3.03;100.00;100721.55;1773308;81;21154;-89
2023/03/01 02:36:23;;;;;;;33.00;20.95;;;;;;;-3.02;100.00;100720.59;1760115;81;21186;-86
2023/03/01 02:39:41;;;;;;;33.73;21.40;;;;;;;-3.04;100.00;100717.63;1734279;83;21163;-86
2023/03/01 02:43:00;;;;;;;30.10;20.02;;;;;;;-3.07;100.00;100723.98;1734211;80;21947;-87
2023/03/01 02:46:13;;;;;;;31.50;20.05;;;;;;;-3.07;100.00;100714.62;1733132;83;21179;-86
2023/03/01 02:49:30;;;;;;;27.87;18.50;;;;;;;-3.05;100.00;100714.56;1726348;83;21278;-90
2023/03/01 02:52:50;;;;;;;32.40;17.48;;;;;;;-3.04;100.00;100709.11;1705518;84;21251;-87
2023/03/01 02:55:55;;;;;;;;;;;;;;;-3.06;100.00;100706.97;1707575;84;21203;-89
2023/03/01 02:59:02;;;;;;;26.73;16.82;;;;;;;-3.08;100.00;100710.22;1704641;84;20211;-89
2023/03/01 03:02:09;;;;;;;34.35;20.27;;;;;;;-3.13;100.00;100715.81;1704406;84;21265;-89
2023/03/01 03:05:22;;;;;;;34.85;20.72;;;;;;;-3.22;100.00;100700.70;1705500;84;21231;-90
2023/03/01 03:08:30;;;;;;;33.13;19.95;;;;;;;-3.26;100.00;100702.66;1706412;84;21444;-90
2023/03/01 03:11:36;;;;;;;33.90;20.08;;;;;;;-3.30;100.00;100691.72;1705702;84;21619;-89
2023/03/01 03:14:42;;;;;;;29.00;19.50;;;;;;;-3.32;100.00;100683.40;1707032;84;21232;-89
2023/03/01 03:17:48;;;;;;;29.45;18.57;;;;;;;-3.33;100.00;100677.66;1706785;84;21201;-90
2023/03/01 03:20:55;;;;;;;28.83;17.00;;;;;;;-3.37;100.00;100678.28;1706922;84;21201;-89
2023/03/01 03:24:01;;;;;;;27.45;18.40;;;;;;;-3.39;100.00;100679.72;1706861;84;21217;-88
2023/03/01 03:27:07;;;;;;;29.05;18.80;;;;;;;-3.42;100.00;100678.52;1705315;84;21331;-89
2023/03/01 03:30:14;;;;;;;28.32;17.05;;;;;;;-3.44;100.00;100683.06;1705386;84;21217;-89
2023/03/01 03:33:20;;;;;;;36.03;20.70;;;;;;;-3.46;100.00;100680.95;1706423;84;21200;-89
2023/03/01 03:36:28;;;;;;;29.42;16.85;;;;;;;-3.46;100.00;100675.61;1705880;84;21494;-88
2023/03/01 03:39:34;;;;;;;29.02;19.55;;;;;;;-3.46;100.00;100672.07;1706235;84;21264;-88
2023/03/01 03:42:40;;;;;;;31.50;19.55;;;;;;;-3.49;100.00;100667.73;1708289;84;21185;-87
2023/03/01 03:45:46;;;;;;;35.00;19.02;;;;;;;-3.52;100.00;100665.23;1707003;84;21209;-88
2023/03/01 03:48:53;;;;;;;29.82;19.65;;;;;;;-3.55;100.00;100659.16;1707789;84;21185;-88
2023/03/01 03:51:54;;;;;;;32.20;19.90;;;;;;;-3.55;100.00;100661.84;1713847;84;21201;-87
2023/03/01 03:54:59;;;;;;;32.30;19.32;;;;;;;-3.54;100.00;100658.22;1714073;84;21248;-88
2023/03/01 03:58:07;;;;;;;28.60;17.40;;;;;;;-3.55;100.00;100657.35;1713546;84;21208;-89
2023/03/01 04:01:12;;;;;;;27.80;17.52;;;;;;;-3.54;100.00;100645.70;1712073;84;21271;-89
2023/03/01 04:04:18;;;;;;;33.00;17.65;;;;;;;-3.52;100.00;100636.29;1712517;83;21277;-89
2023/03/01 04:07:24;;;;;;;31.60;19.75;;;;;;;-3.53;100.00;100632.72;1711464;84;21224;-87
2023/03/01 04:10:31;;;;;;;35.43;23.52;;;;;;;-3.57;100.00;100632.52;1712485;84;21510;-88
2023/03/01 04:13:37;;;;;;;31.93;19.07;;;;;;;-3.65;100.00;100632.03;1711112;83;21228;-88
2023/03/01 04:16:44;;;;;;;32.95;19.45;;;;;;;-3.73;100.00;100623.05;1712043;83;21244;-89
2023/03/01 04:19:49;;;;;;;27.37;17.73;;;;;;;-3.76;100.00;100615.20;1711139;83;21874;-90
2023/03/01 04:22:55;;;;;;;26.95;18.00;;;;;;;-3.81;100.00;100612.35;1712004;84;21189;-88
2023/03/01 04:26:04;;;;;;;34.23;19.30;;;;;;;-3.86;100.00;100609.47;1712067;84;22539;-89
2023/03/01 04:29:10;;;;;;;33.78;20.82;;;;;;;-3.88;100.00;100609.14;1712225;84;21795;-89
2023/03/01 04:32:18;;;;;;;34.55;19.73;;;;;;;-3.89;100.00;100602.06;1711834;84;21711;-88
2023/03/01 04:35:23;;;;;;;32.30;20.30;;;;;;;-3.93;100.00;100601.34;1712192;84;21192;-87
2023/03/01 04:38:30;;;;;;;35.17;22.40;;;;;;;-3.92;100.00;100600.41;1712239;84;21213;-90
2023/03/01 04:41:35;;;;;;;34.30;20.75;;;;;;;-3.90;100.00;100605.22;1712216;84;21810;-88
2023/03/01 04:44:43;;;;;;;28.35;16.27;;;;;;;-3.83;100.00;100596.87;1711019;84;21248;-90
2023/03/01 04:47:51;;;;;;;25.70;17.32;;;;;;;-3.77;100.00;100593.88;1711238;84;21234;-90
2023/03/01 04:50:58;;;;;;;32.90;17.95;;;;;;;-3.76;100.00;100589.81;1708059;83;21237;-89
2023/03/01 04:54:05;;;;;;;28.92;18.67;;;;;;;-3.74;100.00;100591.92;1695743;83;21764;-90
2023/03/01 04:57:12;;;;;;;29.48;18.15;;;;;;;-3.70;100.00;100590.83;1695272;83;21785;-88
2023/03/01 05:00:23;;;;;;;30.50;18.27;;;;;;;-3.65;100.00;100584.77;1694311;84;21307;-89
2023/03/01 05:03:29;;;;;;;29.32;19.02;;;;;;;-3.57;100.00;100584.86;1694835;84;21237;-90
2023/03/01 05:06:35;;;;;;;36.50;22.02;;;;;;;-3.50;100.00;100561.70;1695663;84;21198;-88
2023/03/01 05:09:41;;;;;;;36.33;21.60;;;;;;;-3.47;100.00;100572.25;1695802;83;21241;-88
2023/03/01 05:12:47;;;;;;;31.15;20.60;;;;;;;-3.44;100.00;100561.37;1695730;84;21775;-89
2023/03/01 05:15:56;;;;;;;30.88;18.67;;;;;;;-3.40;100.00;100556.25;1695844;84;21745;-88
2023/03/01 05:19:11;;;;;;;32.60;20.20;;;;;;;-3.38;100.00;100572.24;1675140;84;21233;-89
2023/03/01 05:22:10;;;;;;;30.70;18.70;;;;;;;-3.31;100.00;100574.10;1695705;84;21185;-89
2023/03/01 05:25:17;;;;;;;25.57;16.52;;;;;;;-3.22;100.00;100575.81;1695771;84;21487;-88
2023/03/01 05:28:24;;;;;;;27.62;17.05;;;;;;;-3.11;100.00;100589.47;1694799;84;21296;-87
2023/03/01 05:31:30;;;;;;;29.90;18.42;;;;;;;-3.04;100.00;100587.34;1705870;83;21768;-89
2023/03/01 05:34:41;;;;;;;28.73;17.25;;;;;;;-2.97;100.00;100569.98;1713712;83;21780;-88
2023/03/01 05:37:41;;;;;;;32.00;17.60;;;;;;;-2.92;100.00;100567.05;1728095;83;21233;-90
2023/03/01 05:40:46;;;;;;;28.45;18.07;;;;;;;-2.85;100.00;100566.64;1725886;83;21237;-88
2023/03/01 05:43:52;;;;;;;31.75;17.50;;;;;;;-2.78;100.00;100571.17;1715641;83;21229;-89
2023/03/01 05:46:59;;;;;;;32.10;18.30;;;;;;;-2.71;100.00;100578.41;1732425;83;21149;-88
2023/03/01 05:50:04;;;;;;;24.65;17.20;;;;;;;-2.66;99.91;100584.37;1718249;83;21257;-90
2023/03/01 05:53:13;;;;;;;27.27;16.65;;;;;;;-2.62;99.52;100580.09;1744063;80;21789;-89
2023/03/01 05:56:18;;;;;;;26.70;16.90;;;;;;;-2.56;99.14;100578.88;1700371;83;21201;-90
2023/03/01 05:59:23;;;;;;;28.25;17.50;;;;;;;-2.53;98.74;100576.04;1719832;81;21178;-89
2023/03/01 06:02:29;;;;;;;30.15;16.52;;;;;;;-2.52;98.34;100579.09;1740315;82;21195;-89
2023/03/01 06:05:35;;;;;;;27.85;17.67;;;;;;;-2.49;98.22;100578.05;1740198;82;21844;-89
2023/03/01 06:08:41;;;;;;;29.10;18.57;;;;;;;-2.48;98.04;100587.36;1727821;81;21902;-89
2023/03/01 06:11:47;;;;;;;29.12;17.73;;;;;;;-2.44;97.98;100579.54;1705906;83;21201;-87
2023/03/01 06:14:53;;;;;;;31.52;17.85;;;;;;;-2.43;97.94;100583.94;1734032;82;21220;-88
2023/03/01 06:17:58;;;;;;;37.50;21.05;;;;;;;-2.40;97.96;100581.09;1738400;82;21835;-88
2023/03/01 06:21:04;;;;;;;34.27;20.95;;;;;;;-2.37;97.29;100577.36;1713643;83;21146;-90
2023/03/01 06:24:09;;;;;;;42.50;24.37;;;;;;;-2.35;96.91;100575.48;1710154;84;21217;-89
2023/03/01 06:27:15;;;;;;;41.42;23.60;;;;;;;-2.15;96.37;100579.68;1698108;83;21773;-89
2023/03/01 06:30:24;;;;;;;29.95;20.05;;;;;;;-1.97;95.71;100581.30;1724491;82;21268;-88
2023/03/01 06:33:29;;;;;;;33.23;20.72;;;;;;;-1.86;95.53;100585.53;1725562;82;21236;-89
2023/03/01 06:36:36;;;;;;;34.65;21.35;;;;;;;-1.77;95.42;100589.97;1701852;83;21201;-89
2023/03/01 06:39:41;;;;;;;34.75;21.23;;;;;;;-1.69;95.05;100591.73;1703251;83;21929;-88
2023/03/01 06:42:51;;;;;;;34.10;20.10;;;;;;;-1.66;95.01;100581.66;1724885;82;21235;-88
2023/03/01 06:45:57;;;;;;;;;;;;;;;-1.57;94.86;100590.98;1726780;83;21228;-86
2023/03/01 06:49:07;;;;;;;31.10;19.02;;;;;;;-1.51;94.24;100589.73;1724259;83;20652;-88
2023/03/01 06:52:09;;;;;;;32.30;17.90;;;;;;;-1.43;94.09;100584.30;1739451;82;21314;-88
2023/03/01 06:55:18;;;;;;;27.05;17.92;;;;;;;-1.33;93.98;100596.19;1717929;82;21209;-89
2023/03/01 06:58:23;;;;;;;29.90;20.08;;;;;;;-1.25;93.45;100590.37;1694816;82;21187;-88
2023/03/01 07:01:29;;;;;;;30.62;18.70;;;;;;;-1.13;92.31;100592.76;1706212;82;21225;-88
2023/03/01 07:04:35;;;;;;;29.45;19.07;;;;;;;-1.13;91.54;100592.31;1713715;81;21192;-89
2023/03/01 07:07:42;;;;;;;28.75;17.20;;;;;;;-1.09;91.18;100583.56;1720621;82;21200;-88
2023/03/01 07:10:48;;;;;;;28.57;17.87;;;;;;;-0.99;91.43;100587.39;1720148;82;21798;-89
2023/03/01 07:13:56;;;;;;;30.92;19.07;;;;;;;-0.86;91.30;100588.84;1721178;82;21184;-88
2023/03/01 07:17:01;;;;;;;37.83;19.27;;;;;;;-0.72;90.56;100582.59;1692586;83;21196;-87
2023/03/01 07:20:06;;;;;;;32.98;19.50;;;;;;;-0.67;89.85;100576.44;1735413;82;21804;-88
2023/03/01 07:23:13;;;;;;;31.75;19.92;;;;;;;-0.59;89.71;100580.85;1737992;82;21700;-88
2023/03/01 07:26:19;;;;;;;28.32;18.25;;;;;;;-0.40;89.23;100574.66;1734847;82;21201;-90
2023/03/01 07:29:24;;;;;;;33.33;19.67;;;;;;;-0.33;88.96;100581.38;1735437;82;21259;-89
2023/03/01 07:32:30;;;;;;;29.95;20.62;;;;;;;-0.24;88.13;100572.31;1740288;82;21202;-89
2023/03/01 07:35:36;;;;;;;31.82;19.90;;;;;;;-0.33;86.68;100581.38;1678390;83;21648;-86
2023/03/01 07:38:43;;;;;;;30.55;20.00;;;;;;;-0.35;86.91;100577.05;1709792;82;21232;-87
2023/03/01 07:41:48;;;;;;;34.00;20.08;;;;;;;-0.30;87.56;100574.44;1739434;82;21185;-86
2023/03/01 07:44:54;;;;;;;31.70;19.55;;;;;;;-0.14;87.40;100565.35;1740594;81;21205;-87
2023/03/01 07:47:56;;;;;;;34.20;18.77;;;;;;;-0.06;86.82;100561.68;1734431;82;21508;-87
2023/03/01 07:51:01;;;;;;;34.70;18.12;;;;;;;-0.01;86.51;100563.09;1707028;83;21422;-88
2023/03/01 07:54:07;;;;;;;27.82;18.62;;;;;;;0.09;86.30;100561.98;1734122;82;21744;-87
2023/03/01 07:57:13;;;;;;;31.97;20.77;;;;;;;0.19;86.04;100563.12;1730229;81;21190;-87
2023/03/01 08:00:20;;;;;;;32.05;19.77;;;;;;;0.27;85.05;100562.58;1726304;82;21268;-87
2023/03/01 08:03:27;;;;;;;29.52;18.37;;;;;;;0.33;85.56;100563.98;1728726;82;21185;-86
2023/03/01 08:06:34;;;;;;;28.65;18.37;;;;;;;0.48;85.13;100560.27;1781045;79;21177;-88
2023/03/01 08:09:41;;;;;;;29.80;19.70;;;;;;;0.60;84.74;100554.01;1778328;79;21191;-88
2023/03/01 08:12:47;;;;;;;28.62;18.15;;;;;;;0.68;84.38;100542.23;1781874;79;22059;-88
2023/03/01 08:15:53;;;;;;;31.57;18.23;;;;;;;0.76;83.94;100529.58;1795762;79;21157;-89
2023/03/01 08:18:52;;;;;;;29.18;17.77;;;;;;;0.83;82.88;100530.00;1778074;79;21213;-88
2023/03/01 08:21:58;;;;;;;31.50;18.10;;;;;;;0.92;82.42;100523.95;1794438;79;21169;-87
2023/03/01 08:25:03;;;;;;;25.43;16.35;;;;;;;1.02;82.55;100516.94;1778060;79;21231;-88
2023/03/01 08:28:08;;;;;;;35.55;18.55;;;;;;;1.15;82.33;100515.58;1799126;79;21239;-89
2023/03/01 08:31:31;;;;;;;24.55;15.85;;;;;;;1.24;82.12;100510.38;1789707;79;21145;-89
2023/03/01 08:34:36;;;;;;;30.65;17.45;;;;;;;1.38;82.08;100503.98;1773129;79;21160;-86
2023/03/01 08:37:42;;;;;;;21.55;14.50;;;;;;;1.52;82.09;100495.73;1781871;79;21224;-87
2023/03/01 08:40:48;;;;;;;19.87;13.22;;;;;;;1.68;81.18;100490.53;1778508;78;21178;-88
2023/03/01 08:44:01;;;;;;;24.00;14.25;;;;;;;1.78;80.19;100492.91;1783163;79;21181;-86
2023/03/01 08:47:04;;;;;;;18.87;13.30;;;;;;;1.83;79.62;100493.41;1796930;78;21137;-88
2023/03/01 08:50:11;;;;;;;19.95;11.97;;;;;;;1.92;79.29;100496.77;1780689;79;21165;-87
2023/03/01 08:53:16;;;;;;;24.00;12.80;;;;;;;2.02;78.21;100489.72;1790411;79;21759;-87
2023/03/01 08:56:23;;;;;;;18.40;12.28;;;;;;;2.11;77.46;100488.13;1777790;79;21251;-88
2023/03/01 08:59:29;;;;;;;20.43;13.53;;;;;;;2.18;77.12;100489.39;1787599;80;21224;-87
2023/03/01 09:02:35;;;;;;;18.27;12.33;;;;;;;2.25;77.07;100490.62;1768843;79;21286;-88
2023/03/01 09:05:40;;;;;;;19.10;11.35;;;;;;;2.47;77.49;100482.21;1781086;80;21208;-87
2023/03/01 09:08:46;;;;;;;16.42;10.68;;;;;;;2.59;76.40;100482.61;1780691;79;21190;-88
2023/03/01 09:11:53;;;;;;;18.87;10.85;;;;;;;2.61;75.69;100477.94;1779534;79;21201;-88
2023/03/01 09:14:59;;;;;;;19.60;10.70;;;;;;;2.49;75.47;100476.19;1786463;80;21776;-87
2023/03/01 09:18:05;;;;;;;15.48;10.13;;;;;;;2.62;74.23;100472.03;1768439;80;21216;-88
2023/03/01 09:21:13;;;;;;;16.35;11.03;;;;;;;2.64;73.34;100479.05;1770618;80;21200;-87
2023/03/01 09:24:22;;;;;;;19.98;10.30;;;;;;;2.69;73.31;100471.94;1726334;82;21185;-89
2023/03/01 09:27:28;;;;;;;20.32;11.25;;;;;;;2.72;73.37;100460.37;1744022;77;21211;-88
2023/03/01 09:30:35;;;;;;;13.93;9.48;;;;;;;2.77;72.73;100450.55;1728139;82;21205;-86
2023/03/01 09:33:41;;;;;;;17.62;10.28;;;;;;;2.85;71.87;100455.35;1733174;79;21831;-88
2023/03/01 09:36:47;;;;;;;16.77;9.50;;;;;;;2.90;72.04;100446.38;1739959;81;21208;-88
2023/03/01 09:39:53;;;;;;;15.20;9.50;;;;;;;2.96;71.78;100439.97;1740075;82;21186;-88
2023/03/01 09:43:12;;;;;;;13.75;9.15;;;;;;;3.06;72.34;100438.27;1711282;83;21224;-86
2023/03/01 09:46:19;;;;;;;20.00;11.08;;;;;;;3.16;72.03;100443.78;1724783;82;21166;-88
2023/03/01 09:49:32;;;;;;;13.50;9.35;;;;;;;3.35;71.49;100443.63;1733410;82;21173;-87
2023/03/01 09:52:50;;;;;;;17.67;10.43;;;;;;;3.51;70.58;100434.59;1711068;81;21233;-87
2023/03/01 09:56:06;;;;;;;17.23;9.55;;;;;;;3.65;70.90;100424.82;1741262;81;21690;-89
2023/03/01 09:59:23;;;;;;;18.62;9.05;;;;;;;3.76;70.33;100420.70;1703292;83;21217;-89
2023/03/01 10:02:35;;;;;;;11.53;7.60;;;;;;;3.82;69.63;100414.80;1693352;83;21264;-89
2023/03/01 10:05:45;;;;;;;13.72;7.92;;;;;;;3.83;69.48;100415.65;1695686;84;21676;-89
2023/03/01 10:09:02;;;;;;;13.65;8.10;;;;;;;3.82;69.30;100412.08;1687398;84;21209;-89
2023/03/01 10:12:08;;;;;;;13.38;7.67;;;;;;;3.80;68.63;100403.22;1709637;83;21220;-86
2023/03/01 10:15:34;;;;;;;13.13;8.18;;;;;;;3.84;69.40;100391.16;1686074;84;21264;-88
2023/03/01 10:18:41;;;;;;;11.68;8.10;;;;;;;3.88;69.12;100386.84;1728156;83;21229;-87
2023/03/01 10:21:52;;;;;;;13.35;7.53;;;;;;;3.89;68.14;100385.84;1715705;83;21743;-88
2023/03/01 10:24:58;;;;;;;11.70;7.55;;;;;;;3.90;68.66;100378.08;1714534;81;21686;-87
2023/03/01 10:28:09;;;;;;;13.95;8.30;;;;;;;3.89;68.12;100379.08;1729084;81;21799;-88
2023/03/01 10:31:08;;;;;;;11.95;7.67;;;;;;;3.88;68.59;100371.45;1727259;82;21206;-86
2023/03/01 10:34:17;;;;;;;13.88;8.35;;;;;;;3.96;69.27;100366.25;1675844;83;21248;-88
2023/03/01 10:37:27;;;;;;;12.82;8.68;;;;;;;4.00;69.09;100362.30;1720095;83;21165;-87
2023/03/01 10:40:32;;;;;;;11.50;7.75;;;;;;;4.02;70.17;100371.12;1699051;83;21849;-86
2023/03/01 10:44:05;;;;;;;14.00;8.63;;;;;;;4.04;69.49;100360.16;1691321;85;21421;-86
2023/03/01 10:47:12;;;;;;;13.40;9.43;;;;;;;4.04;69.10;100360.16;1690808;83;21521;-89
2023/03/01 10:50:28;;;;;;;14.20;9.45;;;;;;;4.09;70.52;100364.20;1693355;83;21153;-88
2023/03/01 10:53:39;;;;;;;15.63;9.70;;;;;;;4.16;71.48;100355.04;1690258;83;21239;-89
2023/03/01 10:56:55;;;;;;;15.58;9.50;;;;;;;4.19;70.25;100346.66;1691787;85;21205;-86
2023/03/01 11:00:06;;;;;;;15.58;10.15;;;;;;;4.22;70.53;100354.48;1724738;83;21188;-86
2023/03/01 11:03:17;;;;;;;16.70;9.43;;;;;;;4.24;71.43;100349.81;1779793;80;21217;-87
2023/03/01 11:06:29;;;;;;;13.43;9.05;;;;;;;4.26;71.80;100351.88;1779526;80;21255;-87
2023/03/01 11:09:41;;;;;;;15.38;8.85;;;;;;;4.30;71.90;100346.56;1781190;80;21176;-88
2023/03/01 11:12:47;;;;;;;12.90;7.28;;;;;;;4.32;71.18;100329.67;1780749;80;21996;-89
2023/03/01 11:16:11;;;;;;;12.98;7.35;;;;;;;4.39;71.66;100344.89;1781502;79;21194;-89
2023/03/01 11:19:22;;;;;;;14.98;8.25;;;;;;;4.42;71.41;100341.04;1790577;79;21153;-90
2023/03/01 11:22:29;;;;;;;13.90;8.23;;;;;;;4.44;71.12;100336.36;1781304;80;21244;-87
2023/03/01 11:26:05;;;;;;;11.53;7.83;;;;;;;4.44;71.87;100332.30;1781479;79;21303;-89
2023/03/01 11:29:16;;;;;;;10.43;7.53;;;;;;;4.50;71.70;100331.24;1780332;80;21813;-88
2023/03/01 11:32:22;;;;;;;11.75;7.65;;;;;;;4.63;72.32;100329.66;1779356;79;21199;-87
2023/03/01 11:35:34;;;;;;;14.55;8.33;;;;;;;4.60;71.58;100329.92;1781403;80;21239;-89
2023/03/01 11:38:43;;;;;;;14.58;9.08;;;;;;;4.59;72.67;100326.36;1786835;80;21196;-88
2023/03/01 11:41:52;;;;;;;13.88;8.58;;;;;;;4.64;71.69;100332.72;1785421;80;21185;-89
2023/03/01 11:45:02;;;;;;;12.20;7.70;;;;;;;4.73;72.56;100327.83;1792291;79;21173;-88
2023/03/01 11:48:38;;;;;;;11.08;7.10;;;;;;;4.84;73.47;100328.20;1812793;79;21228;-88
2023/03/01 11:52:29;;;;;;;10.23;7.53;;;;;;;4.91;72.14;100314.97;1805856;79;21542;-87
2023/03/01 11:56:13;;;;;;;14.63;8.23;;;;;;;4.93;72.31;100319.73;1795736;79;21196;-86
2023/03/01 11:59:55;;;;;;;11.70;7.70;;;;;;;4.88;72.74;100311.52;1808908;79;21196;-87
2023/03/01 12:03:22;;;;;;;13.15;8.08;;;;;;;4.88;72.85;100319.66;1777869;80;21794;-87
2023/03/01 12:07:06;;;;;;;16.00;8.50;;;;;;;4.72;72.45;100313.08;1778695;80;21173;-88
2023/03/01 12:10:30;;;;;;;13.68;8.30;;;;;;;4.65;73.57;100306.48;1779331;79;21157;-88
2023/03/01 12:14:13;;;;;;;12.18;8.35;;;;;;;4.68;74.16;100309.77;1779756;79;21216;-87
2023/03/01 12:18:12;;;;;;;14.70;9.50;;;;;;;4.68;74.21;100307.06;1795914;79;21207;-87
2023/03/01 12:21:39;;;;;;;13.22;8.08;;;;;;;4.56;76.03;100302.73;1800635;79;21216;-88
2023/03/01 12:24:55;;;;;;;13.38;9.70;;;;;;;4.65;75.08;100309.19;1796499;79;21252;-87
2023/03/01 12:28:27;;;;;;;15.53;8.78;;;;;;;4.67;75.77;100301.80;1799063;79;21201;-87
2023/03/01 12:31:48;;;;;;;12.75;8.20;;;;;;;4.70;76.60;100319.11;1799888;79;21149;-87
2023/03/01 12:35:14;;;;;;;16.42;8.85;;;;;;;4.65;74.97;100319.52;1801721;78;21239;-87
2023/03/01 12:38:50;;;;;;;14.10;8.85;;;;;;;4.68;75.82;100315.20;1811581;78;21212;-87
2023/03/01 12:42:14;;;;;;;12.63;7.50;;;;;;;4.77;75.59;100329.77;1808042;79;21196;-87
2023/03/01 12:45:47;;;;;;;14.13;7.53;;;;;;;4.82;74.40;100331.06;1782536;80;21191;-87
2023/03/01 12:49:21;;;;;;;14.38;8.48;;;;;;;4.95;74.87;100319.97;1795303;79;21791;-88
2023/03/01 12:52:41;;;;;;;12.25;7.62;;;;;;;5.08;75.56;100321.04;1811389;79;21133;-89
2023/03/01 12:55:48;;;;;;;13.88;8.28;;;;;;;5.12;73.62;100333.32;1798588;79;21207;-87
2023/03/01 12:59:14;;;;;;;12.07;7.90;;;;;;;5.13;74.12;100336.41;1796753;79;21216;-88
2023/03/01 13:02:51;;;;;;;14.35;8.55;;;;;;;5.07;73.12;100338.31;1747707;80;21206;-86
2023/03/01 13:06:40;;;;;;;14.55;9.18;;;;;;;5.06;74.70;100327.97;1753232;79;21316;-88
2023/03/01 13:09:52;;;;;;;13.15;8.63;;;;;;;4.89;73.77;100342.19;1773616;81;21210;-88
2023/03/01 13:13:08;;;;;;;11.63;8.08;;;;;;;4.84;74.92;100337.19;1681338;85;21232;-88
2023/03/01 13:16:39;;;;;;;11.65;8.55;;;;;;;4.75;75.39;100360.20;1684786;84;21235;-88
2023/03/01 13:19:41;;;;;;;11.97;7.85;;;;;;;4.63;74.58;100345.91;1735474;81;21165;-88
2023/03/01 13:22:40;;;;;;;11.05;7.58;;;;;;;4.61;75.28;100339.75;1738812;81;21208;-87
2023/03/01 13:25:35;;;;;;;10.32;7.25;;;;;;;4.62;75.19;100341.50;1720020;82;21197;-88
2023/03/01 13:28:48;;;;;;;11.28;8.00;;;;;;;4.67;74.88;100345.15;1731131;82;21244;-87
2023/03/01 13:32:04;;;;;;;13.58;7.80;;;;;;;4.70;75.15;100348.41;1734355;82;21236;-88
2023/03/01 13:35:28;;;;;;;11.45;8.20;;;;;;;4.64;74.99;100342.20;1731429;82;21519;-88
2023/03/01 13:38:53;;;;;;;11.08;8.30;;;;;;;4.53;75.25;100348.59;1737182;82;21212;-89
2023/03/01 13:42:01;;;;;;;10.53;8.13;;;;;;;4.52;75.49;100348.23;1737614;81;21260;-89
2023/03/01 13:45:06;;;;;;;15.75;9.20;;;;;;;4.56;75.92;100355.56;1737200;80;21786;-88
2023/03/01 13:48:24;;;;;;;14.28;9.53;;;;;;;4.52;76.28;100358.22;1724238;82;21197;-90
2023/03/01 13:51:32;;;;;;;16.15;10.30;;;;;;;4.48;76.60;100360.83;1735248;81;21204;-89
2023/03/01 13:54:40;;;;;;;15.80;10.03;;;;;;;4.38;77.81;100373.48;1746194;81;21220;-88
2023/03/01 13:57:47;;;;;;;15.60;10.75;;;;;;;4.33;77.89;100376.09;1734835;82;21272;-88
2023/03/01 14:00:54;;;;;;;19.77;10.55;;;;;;;4.32;78.08;100379.77;1742510;81;21887;-89
2023/03/01 14:04:01;;;;;;;17.77;10.18;;;;;;;4.28;78.05;100381.05;1780863;79;21180;-87
2023/03/01 14:07:31;;;;;;;16.10;9.35;;;;;;;4.22;77.63;100380.71;1776649;79;21508;-87
2023/03/01 14:10:46;;;;;;;17.52;10.32;;;;;;;4.12;78.22;100385.22;1794978;80;21185;-88
2023/03/01 14:14:16;;;;;;;18.00;10.05;;;;;;;3.97;78.62;100388.76;1794470;80;21514;-87
2023/03/01 14:17:50;;;;;;;16.85;11.40;;;;;;;3.80;77.61;100399.66;1775813;80;22421;-89
2023/03/01 14:20:57;;;;;;;26.37;16.30;;;;;;;3.61;78.09;100396.30;1769954;81;21182;-89
2023/03/01 14:24:03;;;;;;;29.35;17.20;;;;;;;3.53;80.20;100409.64;1770062;81;21198;-87
2023/03/01 14:27:12;;;;;;;26.50;17.27;;;;;;;3.49;80.87;100414.94;1770459;81;21714;-88